Time;durP1;ratioP1;P1;durP2;ratioP2;P2;SDS_P1;SDS_P2;PMS_P1;PMS_P2;Temp;Humidity;BMP_temperature;BMP_pressure;BME280_temperature;BME280_humidity;BME280_pressure;Samples;Min_cycle;Max_cycle;Signal;HPM_P1;HPM_P2
2021/07/31 00:05:42;;;;;;;1999.90;999.90;;;;;;;20.89;59.55;100023.44;15675488;28;20091;-63
2021/07/31 00:13:15;;;;;;;1999.90;999.90;;;;;;;20.64;60.38;100012.34;15674529;28;20047;-63
2021/07/31 00:20:48;;;;;;;1999.90;999.90;;;;;;;20.55;60.76;100003.50;15661654;28;20051;-63
2021/07/31 00:28:21;;;;;;;1999.90;999.90;;;;;;;20.69;60.25;99997.69;15611757;28;20053;-63
2021/07/31 00:35:54;;;;;;;1999.90;999.90;;;;;;;20.63;59.42;99992.91;15613375;28;20037;-63
2021/07/31 00:43:27;;;;;;;1999.90;999.90;;;;;;;20.76;59.83;99994.00;15593617;28;20057;-64
2021/07/31 00:51:00;;;;;;;1999.90;999.90;;;;;;;20.63;60.26;99984.41;15611314;28;20057;-63
2021/07/31 00:58:33;;;;;;;1999.90;999.90;;;;;;;20.55;59.98;99992.19;15610487;28;20100;-64
2021/07/31 01:06:11;;;;;;;1999.90;999.90;;;;;;;20.51;60.65;99999.09;15611778;28;20123;-61
2021/07/31 01:13:45;;;;;;;1999.90;999.90;;;;;;;20.45;61.52;100002.38;15611537;28;20104;-63
2021/07/31 01:21:39;;;;;;;1999.90;999.90;;;;;;;20.53;62.05;100005.13;15626510;28;20462;-63
2021/07/31 01:29:29;;;;;;;1999.90;999.90;;;;;;;20.57;61.96;100005.94;15671175;28;20049;-59
2021/07/31 01:37:03;;;;;;;1999.90;999.90;;;;;;;20.69;60.90;99997.69;15670126;28;20179;-62
2021/07/31 01:44:36;;;;;;;1999.90;999.90;;;;;;;20.86;60.32;100012.16;15671639;28;20057;-61
2021/07/31 01:52:10;;;;;;;1999.90;999.90;;;;;;;20.79;59.74;100007.34;15670310;28;20044;-61
2021/07/31 01:59:46;;;;;;;1999.90;999.90;;;;;;;20.68;59.98;100032.16;15663566;28;20482;-63
2021/07/31 02:07:20;;;;;;;1999.90;999.90;;;;;;;20.78;60.42;100044.63;15681600;28;20072;-63
2021/07/31 02:14:53;;;;;;;1999.90;999.90;;;;;;;20.76;59.12;100056.38;15681789;28;20292;-62
2021/07/31 02:22:30;;;;;;;1999.90;999.90;;;;;;;20.99;57.84;100050.09;15653809;28;20048;-64
2021/07/31 02:30:21;;;;;;;1999.90;999.90;;;;;;;21.50;56.55;100057.66;15620289;28;20528;-63
2021/07/31 02:37:56;;;;;;;1999.90;999.90;;;;;;;21.72;55.57;100058.22;15619570;28;20057;-63
2021/07/31 02:45:29;;;;;;;1999.90;999.90;;;;;;;21.82;54.71;100068.63;15618464;28;20137;-64
2021/07/31 02:53:07;;;;;;;1999.90;999.90;;;;;;;21.81;54.59;100074.72;15617460;28;20113;-64
2021/07/31 03:00:41;;;;;;;1999.90;999.90;;;;;;;21.71;54.37;100076.47;15645468;28;20080;-63
2021/07/31 03:08:16;;;;;;;1999.90;999.90;;;;;;;21.89;54.32;100076.25;15677900;28;20045;-64
2021/07/31 03:15:48;;;;;;;1999.90;999.90;;;;;;;21.81;54.47;100075.53;15680091;28;20037;-64
2021/07/31 03:23:24;;;;;;;1999.90;999.90;;;;;;;21.70;54.26;100080.53;15642722;28;20034;-64
2021/07/31 03:30:58;;;;;;;1999.90;999.90;;;;;;;21.78;53.65;100084.09;15617606;28;20041;-63
2021/07/31 03:38:32;;;;;;;1999.90;999.90;;;;;;;21.64;53.31;100090.75;15615403;28;20470;-64
2021/07/31 03:46:05;;;;;;;1999.90;999.90;;;;;;;21.30;53.59;100102.06;15614498;28;20557;-64
2021/07/31 03:53:39;;;;;;;1999.90;999.90;;;;;;;21.15;54.04;100107.03;15614642;28;20517;-63
2021/07/31 04:01:13;;;;;;;1999.90;999.90;;;;;;;21.10;53.85;100115.22;15596857;28;20139;-63
2021/07/31 04:08:47;;;;;;;1999.90;999.90;;;;;;;21.07;54.34;100119.69;15595804;28;20076;-64
2021/07/31 04:16:32;;;;;;;1999.90;999.90;;;;;;;21.19;55.06;100129.72;15614342;28;20045;-64
2021/07/31 04:24:07;;;;;;;1999.90;999.90;;;;;;;21.15;55.60;100128.94;15653680;28;20069;-63
2021/07/31 04:31:39;;;;;;;1999.90;999.90;;;;;;;21.17;55.86;100140.69;15676131;28;20052;-63
2021/07/31 04:39:12;;;;;;;1999.90;999.90;;;;;;;21.32;54.99;100148.66;15674909;28;20056;-64
2021/07/31 04:46:46;;;;;;;1999.90;999.90;;;;;;;21.32;55.26;100147.84;15674319;28;20037;-64
2021/07/31 04:54:19;;;;;;;1999.90;999.90;;;;;;;21.33;55.40;100149.47;15655761;28;20064;-63
2021/07/31 05:02:05;;;;;;;1999.90;999.90;;;;;;;21.53;55.05;100150.47;15673691;28;20094;-64
2021/07/31 05:09:57;;;;;;;1999.90;999.90;;;;;;;21.58;54.68;100160.59;15671203;28;20324;-63
2021/07/31 05:17:30;;;;;;;1999.90;999.90;;;;;;;21.63;54.33;100154.44;15671808;28;20116;-63
2021/07/31 05:25:04;;;;;;;1999.90;999.90;;;;;;;21.67;54.50;100166.53;15623050;28;20505;-63
2021/07/31 05:32:36;;;;;;;1999.90;999.90;;;;;;;22.05;54.22;100166.53;15616190;28;20129;-64
2021/07/31 05:40:11;;;;;;;1999.90;999.90;;;;;;;22.57;53.84;100160.59;15622453;28;20491;-64
2021/07/31 05:47:44;;;;;;;1999.90;999.90;;;;;;;22.54;52.25;100165.09;15622044;28;20148;-64
2021/07/31 05:55:17;;;;;;;1999.90;999.90;;;;;;;22.68;51.91;100170.56;15621682;28;20397;-64
2021/07/31 06:02:49;;;;;;;1999.90;999.90;;;;;;;23.07;50.03;100171.22;15621885;28;20057;-64
2021/07/31 06:10:23;;;;;;;1999.90;999.90;;;;;;;23.27;48.38;100166.41;15619790;28;20061;-64
2021/07/31 06:17:55;;;;;;;1999.90;999.90;;;;;;;23.71;48.46;100168.06;15620621;28;20529;-64
2021/07/31 06:25:29;;;;;;;1999.90;999.90;;;;;;;24.13;47.20;100174.16;15670605;28;20060;-64
2021/07/31 06:33:01;;;;;;;1999.90;999.90;;;;;;;23.83;47.35;100184.50;15679870;28;20063;-65
2021/07/31 06:40:35;;;;;;;1999.90;999.90;;;;;;;24.05;46.70;100175.53;15680075;28;20057;-63
2021/07/31 06:48:08;;;;;;;1999.90;999.90;;;;;;;24.04;45.51;100173.94;15679161;28;20065;-63
2021/07/31 06:55:41;;;;;;;1999.90;999.90;;;;;;;24.48;44.17;100166.88;15680683;28;20055;-65
2021/07/31 07:03:14;;;;;;;1999.90;999.90;;;;;;;24.42;44.27;100162.97;15680311;28;20369;-65
2021/07/31 07:10:47;;;;;;;1999.90;999.90;;;;;;;25.13;44.22;100158.47;15681028;28;20041;-63
2021/07/31 07:18:20;;;;;;;1999.90;999.90;;;;;;;25.10;43.77;100147.13;15679868;28;20518;-63
2021/07/31 07:25:54;;;;;;;1999.90;999.90;;;;;;;25.89;42.10;100153.16;15625894;28;20053;-63
2021/07/31 07:33:26;;;;;;;1999.90;999.90;;;;;;;25.88;39.54;100131.56;15617689;28;20430;-63
2021/07/31 07:41:00;;;;;;;1999.90;999.90;;;;;;;25.59;40.60;100142.16;15615690;28;20608;-63
2021/07/31 07:48:32;;;;;;;1999.90;999.90;;;;;;;26.16;38.50;100132.00;15616134;28;20431;-63
2021/07/31 07:56:06;;;;;;;1999.90;999.90;;;;;;;26.00;38.54;100146.34;15614131;28;20624;-63
2021/07/31 08:03:38;;;;;;;1999.90;999.90;;;;;;;26.66;37.14;100148.41;15597184;28;20048;-63
2021/07/31 08:11:12;;;;;;;;;;;;;;;27.08;38.17;100147.50;15614435;28;20046;-63
2021/07/31 08:18:45;;;;;;;1999.90;999.90;;;;;;;26.05;38.96;100157.22;15613607;28;20301;-63
2021/07/31 08:26:18;;;;;;;1999.90;999.90;;;;;;;25.11;40.60;100145.88;15654272;28;20041;-63
2021/07/31 08:33:51;;;;;;;1999.90;999.90;;;;;;;24.79;40.85;100147.44;15672929;28;20041;-64
2021/07/31 08:41:25;;;;;;;;;;;;;;;26.11;39.94;100146.84;15673516;28;20553;-64
2021/07/31 08:48:57;;;;;;;1999.90;999.90;;;;;;;26.72;38.90;100145.81;15673801;28;19921;-63
2021/07/31 08:56:31;;;;;;;1999.90;999.90;;;;;;;26.33;37.35;100133.50;15672330;28;20119;-63
2021/07/31 09:04:13;;;;;;;1999.90;999.90;;;;;;;25.80;38.32;100137.94;15664424;28;20037;-61
2021/07/31 09:11:58;;;;;;;1999.90;999.90;;;;;;;25.53;38.17;100139.06;15672982;28;20045;-65
2021/07/31 09:19:30;;;;;;;1999.90;999.90;;;;;;;26.59;37.29;100131.50;15667996;28;20041;-63
2021/07/31 09:27:04;;;;;;;;;;;;;;;27.86;34.58;100131.25;15593324;28;20124;-63
2021/07/31 09:34:38;;;;;;;1999.90;999.90;;;;;;;28.67;34.49;100137.19;15610455;28;20291;-63
2021/07/31 09:42:25;;;;;;;1999.90;999.90;;;;;;;27.35;35.60;100144.94;15609884;28;20069;-64
2021/07/31 09:49:58;;;;;;;1999.90;999.90;;;;;;;29.69;33.12;100145.59;15608910;28;20104;-64
2021/07/31 09:57:32;;;;;;;1999.90;999.90;;;;;;;27.06;36.13;100139.38;15608259;28;20049;-64
2021/07/31 10:05:05;;;;;;;1999.90;999.90;;;;;;;27.85;34.46;100135.41;15607114;28;20651;-64
2021/07/31 10:12:39;;;;;;;1999.90;999.90;;;;;;;28.87;33.57;100145.41;15609358;28;20072;-64
2021/07/31 10:20:23;;;;;;;1999.90;999.90;;;;;;;27.09;37.15;100146.25;15619541;28;20458;-60
2021/07/31 10:28:28;;;;;;;1999.90;999.90;;;;;;;26.82;36.39;100127.47;15624704;28;20048;-63
2021/07/31 10:36:27;;;;;;;1999.90;999.90;;;;;;;26.53;37.28;100144.75;15619390;28;20060;-66
2021/07/31 10:44:10;;;;;;;1999.90;999.90;;;;;;;26.32;37.02;100149.03;15620959;28;20046;-62
2021/07/31 10:51:42;;;;;;;1999.90;999.90;;;;;;;26.23;36.92;100139.53;15618689;28;20583;-63
2021/07/31 10:59:17;;;;;;;;;;;;;;;27.72;35.92;100148.16;15617604;28;20058;-63
2021/07/31 11:07:09;;;;;;;1999.90;999.90;;;;;;;26.53;38.67;100164.78;15617282;28;19960;-61
2021/07/31 11:15:07;;;;;;;1999.90;999.90;;;;;;;26.48;37.85;100187.44;15617231;28;20481;-63
2021/07/31 11:22:39;;;;;;;1999.90;999.90;;;;;;;26.38;37.75;100175.88;15641538;28;20051;-64
2021/07/31 11:30:13;;;;;;;1999.90;999.90;;;;;;;27.40;36.20;100175.84;15677051;28;20080;-62
2021/07/31 11:37:45;;;;;;;1999.90;999.90;;;;;;;26.90;36.92;100171.00;15678123;28;20049;-63
2021/07/31 11:45:20;;;;;;;1999.90;999.90;;;;;;;28.58;34.09;100168.72;15676501;28;20097;-63
2021/07/31 11:52:53;;;;;;;1999.90;999.90;;;;;;;27.95;35.29;100172.75;15675720;28;20547;-63
2021/07/31 12:00:26;;;;;;;;;;;;;;;26.66;36.23;100173.38;15675338;28;20053;-63
2021/07/31 12:07:58;;;;;;;1999.90;999.90;;;;;;;30.29;32.70;100162.22;15707978;28;20372;-63
2021/07/31 12:15:42;;;;;;;1999.90;999.90;;;;;;;26.61;35.35;100162.50;15675911;28;20049;-63
2021/07/31 12:23:15;;;;;;;1999.90;999.90;;;;;;;27.12;35.23;100163.31;15674154;28;20235;-63
2021/07/31 12:30:49;;;;;;;1999.90;999.90;;;;;;;28.61;34.09;100164.91;15674269;28;20166;-63
2021/07/31 12:38:22;;;;;;;1999.90;999.90;;;;;;;26.65;36.09;100175.44;15672106;28;20456;-65
2021/07/31 12:45:59;;;;;;;1999.90;999.90;;;;;;;29.01;32.31;100170.69;15672021;28;20140;-62
2021/07/31 12:53:31;;;;;;;1999.90;999.90;;;;;;;27.47;35.39;100161.28;15674026;28;20053;-62
2021/07/31 13:01:05;;;;;;;1999.90;999.90;;;;;;;28.78;33.54;100172.00;15672847;28;20126;-62
2021/07/31 13:08:37;;;;;;;1999.90;999.90;;;;;;;32.76;29.11;100162.66;15671000;28;20462;-64
2021/07/31 13:16:10;;;;;;;1999.90;999.90;;;;;;;26.81;34.58;100154.50;15671988;28;20033;-63
2021/07/31 13:23:43;;;;;;;1999.90;999.90;;;;;;;32.04;29.50;100162.13;15632764;28;20069;-62
2021/07/31 13:31:17;;;;;;;1999.90;999.90;;;;;;;28.91;31.21;100166.97;15610149;28;20045;-64
2021/07/31 13:38:50;;;;;;;1999.90;999.90;;;;;;;26.74;33.99;100177.63;15609439;28;20054;-62
2021/07/31 13:46:24;;;;;;;1999.90;999.90;;;;;;;27.72;33.69;100173.97;15609046;28;20513;-63
2021/07/31 13:53:57;;;;;;;1999.90;999.90;;;;;;;26.84;33.37;100164.22;15617449;28;20143;-65
2021/07/31 14:01:32;;;;;;;1999.90;999.90;;;;;;;27.04;34.49;100176.28;15622541;28;20410;-64
2021/07/31 14:09:05;;;;;;;1999.90;999.90;;;;;;;27.50;34.13;100177.56;15621844;28;20041;-66
2021/07/31 14:16:38;;;;;;;;;;;;;;;26.41;35.09;100177.81;15621384;28;20063;-65
2021/07/31 14:24:10;;;;;;;1999.90;999.90;;;;;;;26.88;35.77;100184.94;15664731;28;19921;-64
2021/07/31 14:31:44;;;;;;;1999.90;999.90;;;;;;;26.50;34.67;100182.88;15680713;28;20111;-63
2021/07/31 14:39:16;;;;;;;1999.90;999.90;;;;;;;26.25;35.22;100174.19;15680436;28;20052;-64
2021/07/31 14:46:50;;;;;;;1999.90;999.90;;;;;;;26.76;34.53;100180.81;15680750;28;20502;-64
2021/07/31 14:54:23;;;;;;;1999.90;999.90;;;;;;;26.13;35.22;100172.91;15680534;28;20041;-65
2021/07/31 15:01:56;;;;;;;1999.90;999.90;;;;;;;25.75;36.51;100184.22;15660017;28;20057;-65
2021/07/31 15:09:29;;;;;;;1999.90;999.90;;;;;;;26.09;36.72;100180.78;15678192;28;20076;-64
2021/07/31 15:17:03;;;;;;;;;;;;;;;25.81;35.89;100177.47;15678364;28;20032;-66
2021/07/31 15:24:36;;;;;;;1999.90;999.90;;;;;;;27.04;36.47;100165.63;15635079;28;20415;-65
2021/07/31 15:32:10;;;;;;;1999.90;999.90;;;;;;;26.51;34.94;100158.72;15615410;28;20037;-65
2021/07/31 15:39:44;;;;;;;1999.90;999.90;;;;;;;26.17;36.00;100162.97;15616676;28;20169;-65
2021/07/31 15:47:18;;;;;;;1999.90;999.90;;;;;;;26.10;35.73;100157.47;15615518;28;20049;-65
2021/07/31 15:54:51;;;;;;;1999.90;999.90;;;;;;;26.30;36.12;100163.00;15616736;28;20068;-66
2021/07/31 16:02:25;;;;;;;;;;;;;;;26.55;35.43;100158.59;15614323;28;20051;-64
2021/07/31 16:09:58;;;;;;;1999.90;999.90;;;;;;;26.24;35.20;100153.38;15598770;28;20361;-62
2021/07/31 16:17:31;;;;;;;1999.90;999.90;;;;;;;25.70;36.02;100154.13;15611882;28;20038;-63
2021/07/31 16:25:04;;;;;;;1999.90;999.90;;;;;;;25.95;35.57;100144.03;15660579;28;20075;-63
2021/07/31 16:32:38;;;;;;;1999.90;999.90;;;;;;;25.86;35.83;100159.00;15656859;28;20865;-64
2021/07/31 16:40:11;;;;;;;1999.90;999.90;;;;;;;25.62;36.15;100158.38;15673408;28;20055;-63
2021/07/31 16:47:44;;;;;;;1999.90;999.90;;;;;;;25.44;36.63;100166.66;15673684;28;20056;-64
2021/07/31 16:55:17;;;;;;;1999.90;999.90;;;;;;;25.54;36.51;100163.50;15671399;28;20059;-63
2021/07/31 17:02:52;;;;;;;1999.90;999.90;;;;;;;25.40;37.26;100171.63;15670896;28;20044;-64
2021/07/31 17:10:26;;;;;;;1999.90;999.90;;;;;;;25.01;37.14;100167.69;15670807;28;20071;-63
2021/07/31 17:17:59;;;;;;;;;;;;;;;25.42;37.04;100175.63;15670654;28;20049;-63
2021/07/31 17:25:32;;;;;;;1999.90;999.90;;;;;;;25.29;37.69;100160.50;15618131;28;20282;-64
2021/07/31 17:33:06;;;;;;;;;;;;;;;25.02;38.06;100177.91;15609120;28;20042;-64
2021/07/31 17:40:39;;;;;;;1999.90;999.90;;;;;;;24.98;38.29;100183.66;15609832;28;19967;-65
2021/07/31 17:48:13;;;;;;;1999.90;999.90;;;;;;;24.96;39.00;100194.72;15610085;28;20069;-63
2021/07/31 17:55:46;;;;;;;1999.90;999.90;;;;;;;24.80;38.63;100186.13;15610240;28;20052;-63
2021/07/31 18:03:20;;;;;;;1999.90;999.90;;;;;;;24.79;38.99;100200.84;15609666;28;20129;-63
2021/07/31 18:10:53;;;;;;;1999.90;999.90;;;;;;;24.75;40.24;100201.72;15608808;28;20042;-63
2021/07/31 18:18:27;;;;;;;1999.90;999.90;;;;;;;24.62;40.12;100215.06;15609942;28;20042;-64
2021/07/31 18:26:00;;;;;;;1999.90;999.90;;;;;;;24.46;40.59;100217.84;15663625;28;20151;-63
2021/07/31 18:33:35;;;;;;;1999.90;999.90;;;;;;;24.02;41.29;100222.81;15670401;28;20171;-64
2021/07/31 18:41:09;;;;;;;1999.90;999.90;;;;;;;24.32;41.56;100223.88;15677686;28;20133;-63
2021/07/31 18:48:42;;;;;;;1999.90;999.90;;;;;;;23.90;42.24;100220.59;15680179;28;20045;-63
2021/07/31 18:56:15;;;;;;;1999.90;999.90;;;;;;;23.82;42.82;100237.03;15680369;28;20148;-63
2021/07/31 19:03:49;;;;;;;;;;;;;;;23.75;43.18;100245.69;15679852;28;20129;-63
2021/07/31 19:11:21;;;;;;;1999.90;999.90;;;;;;;23.25;45.41;100249.38;15679028;28;20396;-62
2021/07/31 19:18:56;;;;;;;1999.90;999.90;;;;;;;23.41;44.01;100245.06;15676590;28;20037;-62
2021/07/31 19:26:29;;;;;;;1999.90;999.90;;;;;;;23.18;44.26;100268.59;15670004;28;20413;-63
2021/07/31 19:34:03;;;;;;;1999.90;999.90;;;;;;;23.21;44.79;100281.97;15675955;28;20033;-63
2021/07/31 19:41:36;;;;;;;1999.90;999.90;;;;;;;23.11;45.47;100282.94;15675410;28;20044;-64
2021/07/31 19:49:14;;;;;;;1999.90;999.90;;;;;;;22.98;45.20;100282.72;15674049;28;20052;-63
2021/07/31 19:56:48;;;;;;;1999.90;999.90;;;;;;;22.88;45.47;100292.22;15658115;28;20056;-63
2021/07/31 20:04:24;;;;;;;1999.90;999.90;;;;;;;22.68;46.20;100300.56;15674822;28;20033;-62
2021/07/31 20:11:58;;;;;;;1999.90;999.90;;;;;;;22.68;45.92;100315.59;15675481;28;20052;-62
2021/07/31 20:19:40;;;;;;;1999.90;999.90;;;;;;;22.46;46.51;100312.19;15673896;28;20056;-63
2021/07/31 20:27:14;;;;;;;1999.90;999.90;;;;;;;22.09;47.72;100309.34;15670148;28;20140;-62
2021/07/31 20:34:48;;;;;;;1999.90;999.90;;;;;;;22.32;47.27;100303.84;15665187;28;20456;-62
2021/07/31 20:42:20;;;;;;;1999.90;999.90;;;;;;;22.15;47.85;100302.00;15653744;28;20094;-62
2021/07/31 20:50:16;;;;;;;1999.90;999.90;;;;;;;22.17;48.08;100310.91;15662967;28;20065;-61
2021/07/31 20:57:48;;;;;;;1999.90;999.90;;;;;;;22.09;48.33;100320.72;15481821;28;20117;-59
2021/07/31 21:05:22;;;;;;;1999.90;999.90;;;;;;;21.86;48.74;100324.97;15493043;28;20499;-58
2021/07/31 21:12:54;;;;;;;1999.90;999.90;;;;;;;21.73;49.16;100325.91;15474387;28;20054;-63
2021/07/31 21:20:28;;;;;;;1999.90;999.90;;;;;;;21.68;50.63;100323.53;15488395;28;20049;-61
2021/07/31 21:28:00;;;;;;;1999.90;999.90;;;;;;;21.51;51.42;100343.13;15445129;28;20590;-61
2021/07/31 21:35:36;;;;;;;1999.90;999.90;;;;;;;21.26;51.81;100333.97;15465711;28;20038;-61
2021/07/31 21:43:08;;;;;;;1999.90;999.90;;;;;;;21.16;52.83;100343.34;15450409;28;20618;-62
2021/07/31 21:50:42;;;;;;;1999.90;999.90;;;;;;;21.11;52.06;100344.56;15470653;28;20057;-62
2021/07/31 21:58:14;;;;;;;1999.90;999.90;;;;;;;21.26;52.03;100348.16;15471450;28;20053;-60
2021/07/31 22:05:48;;;;;;;1999.90;999.90;;;;;;;21.17;51.86;100336.44;15476831;28;20042;-60
2021/07/31 22:13:20;;;;;;;1999.90;999.90;;;;;;;21.28;51.34;100355.03;15467097;28;20054;-59
2021/07/31 22:20:53;;;;;;;1999.90;999.90;;;;;;;21.24;51.06;100353.38;15479482;28;20049;-61
2021/07/31 22:28:25;;;;;;;1999.90;999.90;;;;;;;20.97;51.57;100336.94;15460316;28;20057;-59
2021/07/31 22:35:59;;;;;;;1999.90;999.90;;;;;;;20.98;51.59;100332.06;15456251;28;20042;-61
2021/07/31 22:43:34;;;;;;;1999.90;999.90;;;;;;;20.57;52.70;100329.81;15502901;28;20054;-60
2021/07/31 22:51:08;;;;;;;1999.90;999.90;;;;;;;20.44;53.47;100335.13;15495518;28;20518;-60
2021/07/31 22:58:40;;;;;;;1999.90;999.90;;;;;;;20.46;54.05;100338.38;15489861;28;20070;-59
2021/07/31 23:06:14;;;;;;;1999.90;999.90;;;;;;;20.46;53.83;100346.88;15438692;28;20065;-60
2021/07/31 23:13:46;;;;;;;1999.90;999.90;;;;;;;20.19;54.40;100320.19;15467744;28;20583;-58
2021/07/31 23:21:20;;;;;;;1999.90;999.90;;;;;;;20.31;54.42;100316.09;15500911;28;20046;-60
2021/07/31 23:28:52;;;;;;;1999.90;999.90;;;;;;;19.95;55.47;100329.53;15487374;28;20049;-58
2021/07/31 23:36:26;;;;;;;1999.90;999.90;;;;;;;19.98;55.90;100308.91;15466428;28;20038;-60
2021/07/31 23:43:58;;;;;;;1999.90;999.90;;;;;;;19.82;56.73;100318.63;15486628;28;20053;-60
2021/07/31 23:51:32;;;;;;;1999.90;999.90;;;;;;;19.65;56.86;100332.78;15492871;28;20053;-61
2021/07/31 23:59:04;;;;;;;1999.90;999.90;;;;;;;19.70;57.04;100335.22;15482165;28;20137;-61
